createdAt,value
2023-05-07T00:00:09.724Z,99.99
2023-05-07T00:01:09.919Z,99.99
2023-05-07T00:02:10.473Z,99.99
2023-05-07T00:03:10.643Z,99.99
2023-05-07T00:04:11.542Z,99.99
2023-05-07T00:05:11.983Z,99.99
2023-05-07T00:06:12.681Z,99.99
2023-05-07T00:07:12.181Z,99.99
2023-05-07T00:08:12.617Z,99.99
2023-05-07T00:09:13.133Z,99.99
2023-05-07T00:10:14.220Z,99.99
2023-05-07T00:11:15.129Z,99.99
2023-05-07T00:12:15.403Z,99.99
2023-05-07T00:13:16.312Z,99.99
2023-05-07T00:14:17.269Z,99.99
2023-05-07T00:15:18.370Z,99.99
2023-05-07T00:16:18.135Z,99.99
2023-05-07T00:17:18.699Z,99.99
2023-05-07T00:18:19.056Z,99.99
2023-05-07T00:19:19.600Z,99.99
2023-05-07T00:20:20.516Z,99.99
2023-05-07T00:21:21.286Z,99.99
2023-05-07T00:22:22.432Z,99.99
2023-05-07T00:23:22.958Z,99.99
2023-05-07T00:24:22.956Z,99.99
2023-05-07T00:25:23.877Z,99.99
2023-05-07T00:26:24.689Z,99.99
2023-05-07T00:27:24.960Z,99.99
2023-05-07T00:28:25.469Z,99.99
2023-05-07T00:29:25.906Z,99.99
2023-05-07T00:30:26.805Z,99.99
2023-05-07T00:31:27.377Z,99.99
2023-05-07T00:32:28.297Z,99.99
2023-05-07T00:33:29.235Z,99.99
2023-05-07T00:34:29.921Z,99.99
2023-05-07T00:35:30.738Z,99.99
2023-05-07T00:36:31.426Z,99.99
2023-05-07T00:37:31.946Z,99.99
2023-05-07T00:38:33.078Z,99.99
2023-05-07T00:39:33.859Z,99.99
2023-05-07T00:40:35.163Z,99.99
2023-05-07T00:41:35.880Z,99.99
2023-05-07T00:42:36.588Z,99.99
2023-05-07T00:43:37.290Z,99.99
2023-05-07T00:44:37.996Z,99.99
2023-05-07T00:45:38.976Z,99.99
2023-05-07T00:46:39.976Z,99.99
2023-05-07T00:47:40.346Z,99.99
2023-05-07T00:48:41.086Z,99.99
2023-05-07T00:49:41.734Z,99.99
2023-05-07T00:50:41.697Z,99.99
2023-05-07T00:51:42.445Z,99.99
2023-05-07T00:52:43.359Z,99.99
2023-05-07T00:53:44.127Z,99.99
2023-05-07T00:54:44.731Z,99.99
2023-05-07T00:55:45.427Z,99.99
2023-05-07T00:56:46.431Z,99.99
2023-05-07T00:57:46.719Z,99.99
2023-05-07T00:58:48.386Z,99.99
2023-05-07T00:59:48.470Z,99.99
2023-05-07T01:00:49.190Z,99.99
2023-05-07T01:01:49.978Z,99.99
2023-05-07T01:02:51.325Z,99.99
2023-05-07T01:03:52.178Z,99.99
2023-05-07T01:04:52.619Z,99.99
2023-05-07T01:05:53.853Z,99.99
2023-05-07T01:06:54.043Z,99.99
2023-05-07T01:07:54.562Z,99.99
2023-05-07T01:08:54.880Z,99.99
2023-05-07T01:09:55.460Z,99.99
2023-05-07T01:10:56.190Z,99.99
2023-05-07T01:11:56.385Z,99.99
2023-05-07T01:12:57.186Z,99.99
2023-05-07T01:13:58.233Z,99.99
2023-05-07T01:14:59.192Z,99.99
2023-05-07T01:15:59.914Z,99.99
2023-05-07T01:17:00.447Z,99.99
2023-05-07T01:18:01.236Z,99.99
2023-05-07T01:19:01.936Z,99.99
2023-05-07T01:20:02.170Z,99.99
2023-05-07T01:21:02.748Z,99.99
2023-05-07T01:22:03.242Z,99.99
2023-05-07T01:23:03.761Z,99.99
2023-05-07T01:24:04.254Z,99.99
2023-05-07T01:25:05.069Z,99.99
2023-05-07T01:26:06.264Z,99.99
2023-05-07T01:27:07.073Z,99.99
2023-05-07T01:28:07.780Z,99.99
2023-05-07T01:29:08.009Z,99.99
2023-05-07T01:30:08.215Z,99.99
2023-05-07T01:31:08.706Z,99.99
2023-05-07T01:32:08.953Z,99.99
2023-05-07T01:33:09.567Z,99.99
2023-05-07T01:34:09.786Z,99.99
2023-05-07T01:35:10.555Z,99.99
2023-05-07T01:36:10.693Z,99.99
2023-05-07T01:37:11.188Z,99.99
2023-05-07T01:38:11.776Z,99.99
2023-05-07T01:39:12.277Z,99.99
2023-05-07T01:40:13.225Z,99.99
2023-05-07T01:41:13.801Z,99.99
2023-05-07T01:42:14.310Z,99.99
2023-05-07T01:43:15.007Z,99.99
2023-05-07T01:44:15.940Z,99.99
2023-05-07T01:45:16.634Z,99.99
2023-05-07T01:46:17.599Z,99.99
2023-05-07T01:47:17.824Z,99.99
2023-05-07T01:48:18.594Z,99.99
2023-05-07T01:49:18.917Z,99.99
2023-05-07T01:50:19.860Z,99.99
2023-05-07T01:51:19.907Z,99.99
2023-05-07T01:52:20.200Z,99.99
2023-05-07T01:53:20.716Z,99.99
2023-05-07T01:54:21.042Z,99.99
2023-05-07T01:55:21.593Z,99.99
2023-05-07T01:56:22.116Z,99.99
2023-05-07T01:57:22.708Z,99.99
2023-05-07T01:58:23.454Z,99.99
2023-05-07T01:59:24.037Z,99.99
2023-05-07T02:00:24.996Z,99.99
2023-05-07T02:01:25.877Z,99.99
2023-05-07T02:02:26.522Z,99.99
2023-05-07T02:03:27.060Z,99.99
2023-05-07T02:04:27.496Z,99.99
2023-05-07T02:05:27.491Z,99.99
2023-05-07T02:06:27.821Z,99.99
2023-05-07T02:07:27.828Z,99.99
2023-05-07T02:08:28.346Z,99.99
2023-05-07T02:09:29.092Z,99.99
2023-05-07T02:10:29.946Z,99.99
2023-05-07T02:11:30.425Z,99.99
2023-05-07T02:12:31.016Z,99.99
2023-05-07T02:13:31.776Z,99.99
2023-05-07T02:14:32.840Z,99.99
2023-05-07T02:15:33.750Z,99.99
2023-05-07T02:16:34.526Z,99.99
2023-05-07T02:17:35.451Z,99.99
2023-05-07T02:18:36.342Z,99.99
2023-05-07T02:19:36.891Z,99.99
2023-05-07T02:20:37.412Z,99.99
2023-05-07T02:21:37.501Z,99.99
2023-05-07T02:22:37.813Z,99.99
2023-05-07T02:23:38.510Z,99.99
2023-05-07T02:24:39.007Z,99.99
2023-05-07T02:25:39.743Z,99.99
2023-05-07T02:26:40.452Z,99.99
2023-05-07T02:27:41.029Z,99.99
2023-05-07T02:28:41.761Z,99.99
2023-05-07T02:29:42.694Z,99.99
2023-05-07T02:30:43.237Z,99.99
2023-05-07T02:31:44.137Z,99.99
2023-05-07T02:32:44.430Z,99.99
2023-05-07T02:33:45.353Z,99.99
2023-05-07T02:34:46.257Z,99.99
2023-05-07T02:35:46.930Z,99.99
2023-05-07T02:36:48.020Z,99.99
2023-05-07T02:37:49.045Z,99.99
2023-05-07T02:38:49.572Z,99.99
2023-05-07T02:39:50.482Z,99.99
2023-05-07T02:40:51.149Z,99.99
2023-05-07T02:41:51.662Z,99.99
2023-05-07T02:42:52.331Z,99.99
2023-05-07T02:43:52.810Z,99.99
2023-05-07T02:44:53.998Z,99.99
2023-05-07T02:45:54.957Z,99.99
2023-05-07T02:46:55.413Z,99.99
2023-05-07T02:47:56.224Z,99.99
2023-05-07T02:48:56.915Z,99.99
2023-05-07T02:49:57.605Z,99.99
2023-05-07T02:50:58.495Z,99.99
2023-05-07T02:51:59.461Z,99.99
2023-05-07T02:52:59.765Z,99.99
2023-05-07T02:54:00.161Z,99.99
2023-05-07T02:55:00.273Z,99.99
2023-05-07T02:56:00.933Z,99.99
2023-05-07T02:57:01.899Z,99.99
2023-05-07T02:58:02.477Z,99.99
2023-05-07T02:59:03.160Z,99.99
2023-05-07T03:00:04.178Z,99.99
2023-05-07T03:01:04.347Z,99.99
2023-05-07T03:02:05.034Z,99.99
2023-05-07T03:03:05.847Z,99.99
2023-05-07T03:04:07.155Z,99.99
2023-05-07T03:05:07.984Z,99.99
2023-05-07T03:06:08.762Z,99.99
2023-05-07T03:07:09.799Z,99.99
2023-05-07T03:08:10.313Z,99.99
2023-05-07T03:09:11.034Z,99.99
2023-05-07T03:10:11.873Z,99.99
2023-05-07T03:11:12.156Z,99.99
2023-05-07T03:12:12.848Z,99.99
2023-05-07T03:13:13.827Z,99.99
2023-05-07T03:14:13.488Z,99.99
2023-05-07T03:15:14.116Z,99.99
2023-05-07T03:16:15.157Z,99.99
2023-05-07T03:17:15.015Z,99.99
2023-05-07T03:18:15.993Z,99.99
2023-05-07T03:19:16.117Z,99.99
2023-05-07T03:20:17.238Z,99.99
2023-05-07T03:22:17.481Z,99.99
2023-05-07T03:23:18.185Z,99.99
2023-05-07T03:24:19.208Z,99.99
2023-05-07T03:25:19.550Z,99.99
2023-05-07T03:26:19.943Z,99.99
2023-05-07T03:27:20.548Z,99.99
2023-05-07T03:28:21.360Z,99.99
2023-05-07T03:29:21.785Z,99.99
2023-05-07T03:30:22.087Z,99.99
2023-05-07T03:31:22.811Z,99.99
2023-05-07T03:32:23.514Z,99.99
2023-05-07T03:33:24.611Z,99.99
2023-05-07T03:34:24.893Z,99.99
2023-05-07T03:35:25.577Z,99.99
2023-05-07T03:36:26.259Z,99.99
2023-05-07T03:37:27.237Z,99.99
2023-05-07T03:38:27.739Z,99.99
2023-05-07T03:39:28.441Z,99.99
2023-05-07T03:40:29.757Z,99.99
2023-05-07T03:41:29.914Z,99.99
2023-05-07T03:42:30.352Z,99.99
2023-05-07T03:43:30.926Z,99.99
2023-05-07T03:44:31.883Z,99.99
2023-05-07T03:45:32.617Z,99.99
2023-05-07T03:46:33.213Z,99.99
2023-05-07T03:47:33.531Z,99.99
2023-05-07T03:48:33.646Z,99.99
2023-05-07T03:49:34.168Z,99.99
2023-05-07T03:50:35.148Z,99.99
2023-05-07T03:51:35.530Z,99.99
2023-05-07T03:52:36.140Z,99.99
2023-05-07T03:53:37.127Z,99.99
2023-05-07T03:54:37.640Z,99.99
2023-05-07T03:55:38.162Z,99.99
2023-05-07T03:56:39.167Z,99.99
2023-05-07T03:57:39.847Z,99.99
2023-05-07T03:58:40.895Z,99.99
2023-05-07T03:59:41.824Z,99.99
2023-05-07T04:00:42.215Z,99.99
2023-05-07T04:01:43.200Z,99.99
2023-05-07T04:02:43.943Z,99.99
2023-05-07T04:03:44.119Z,99.99
2023-05-07T04:04:44.379Z,99.99
2023-05-07T04:05:44.698Z,99.99
2023-05-07T04:06:45.392Z,99.99
2023-05-07T04:07:46.419Z,99.99
2023-05-07T04:08:46.944Z,99.99
2023-05-07T04:09:47.446Z,99.99
2023-05-07T04:10:47.996Z,99.99
2023-05-07T04:11:48.364Z,99.99
2023-05-07T04:12:49.777Z,99.99
2023-05-07T04:13:50.588Z,99.99
2023-05-07T04:14:51.306Z,99.99
2023-05-07T04:15:52.098Z,99.99
2023-05-07T04:16:53.285Z,99.99
2023-05-07T04:17:54.028Z,99.99
2023-05-07T04:18:54.935Z,99.99
2023-05-07T04:19:55.847Z,99.99
2023-05-07T04:20:56.534Z,99.99
2023-05-07T04:21:57.361Z,99.99
2023-05-07T04:22:57.280Z,99.99
2023-05-07T04:23:58.213Z,99.99
2023-05-07T04:24:58.928Z,99.99
2023-05-07T04:25:59.420Z,99.99
2023-05-07T04:26:59.960Z,99.99
2023-05-07T04:28:03.275Z,99.99
2023-05-07T04:29:01.952Z,99.99
2023-05-07T04:30:02.283Z,99.99
2023-05-07T04:31:03.147Z,99.99
2023-05-07T04:32:04.105Z,99.99
2023-05-07T04:33:05.246Z,99.99
2023-05-07T04:34:06.194Z,99.99
2023-05-07T04:35:06.492Z,99.99
2023-05-07T04:36:07.002Z,99.99
2023-05-07T04:37:07.352Z,99.99
2023-05-07T04:38:08.334Z,99.99
2023-05-07T04:39:09.040Z,99.99
2023-05-07T04:40:09.774Z,99.99
2023-05-07T04:41:10.023Z,99.99
2023-05-07T04:42:10.211Z,99.99
2023-05-07T04:43:10.714Z,99.99
2023-05-07T04:44:11.345Z,99.99
2023-05-07T04:45:11.847Z,99.99
2023-05-07T04:46:12.805Z,99.99
2023-05-07T04:47:13.649Z,99.99
2023-05-07T04:48:14.622Z,99.99
2023-05-07T04:49:15.136Z,99.99
2023-05-07T04:50:15.999Z,99.99
2023-05-07T04:51:16.408Z,99.99
2023-05-07T04:52:17.267Z,99.99
2023-05-07T04:53:17.490Z,99.99
2023-05-07T04:54:18.174Z,99.99
2023-05-07T04:55:18.908Z,99.99
2023-05-07T04:56:19.651Z,99.99
2023-05-07T04:57:20.175Z,99.99
2023-05-07T04:58:20.651Z,99.99
2023-05-07T04:59:22.060Z,99.99
2023-05-07T05:00:21.974Z,99.99
2023-05-07T05:01:22.715Z,99.99
2023-05-07T05:02:25.331Z,99.99
2023-05-07T05:03:23.476Z,99.99
2023-05-07T05:04:23.248Z,99.99
2023-05-07T05:05:24.165Z,99.99
2023-05-07T05:06:24.464Z,99.99
2023-05-07T05:07:25.029Z,99.99
2023-05-07T05:08:25.144Z,99.99
2023-05-07T05:09:25.882Z,99.99
2023-05-07T05:10:29.260Z,99.99
2023-05-07T05:11:27.151Z,99.99
2023-05-07T05:12:27.434Z,99.99
2023-05-07T05:13:28.141Z,99.99
2023-05-07T05:14:29.126Z,99.99
2023-05-07T05:15:30.285Z,99.99
2023-05-07T05:16:29.645Z,99.99
2023-05-07T05:17:30.244Z,99.99
2023-05-07T05:18:31.000Z,99.99
2023-05-07T05:19:31.708Z,99.99
2023-05-07T05:20:31.828Z,99.99
2023-05-07T05:21:32.752Z,99.99
2023-05-07T05:22:33.515Z,99.99
2023-05-07T05:23:34.204Z,99.99
2023-05-07T05:24:34.750Z,99.99
2023-05-07T05:25:35.271Z,99.99
2023-05-07T05:26:35.560Z,99.99
2023-05-07T05:27:36.642Z,99.99
2023-05-07T05:28:37.172Z,99.99
2023-05-07T05:29:38.019Z,99.99
2023-05-07T05:30:38.523Z,99.99
2023-05-07T05:31:39.447Z,99.99
2023-05-07T05:32:40.362Z,99.99
2023-05-07T05:33:40.161Z,99.99
2023-05-07T05:34:40.898Z,99.99
2023-05-07T05:35:41.416Z,99.99
2023-05-07T05:36:42.132Z,99.99
2023-05-07T05:37:43.028Z,99.99
2023-05-07T05:38:43.136Z,99.99
2023-05-07T05:39:43.623Z,99.99
2023-05-07T05:40:44.116Z,99.99
2023-05-07T05:41:44.495Z,99.99
2023-05-07T05:42:45.239Z,99.99
2023-05-07T05:43:45.967Z,99.99
2023-05-07T05:44:46.789Z,99.99
2023-05-07T05:45:47.503Z,99.99
2023-05-07T05:46:48.502Z,99.99
2023-05-07T05:47:49.580Z,99.99
2023-05-07T05:48:49.648Z,99.99
2023-05-07T05:49:49.989Z,99.99
2023-05-07T05:50:50.353Z,99.99
2023-05-07T05:51:50.668Z,99.99
2023-05-07T05:52:50.790Z,99.99
2023-05-07T05:53:51.678Z,99.99
2023-05-07T05:54:51.791Z,99.99
2023-05-07T05:55:52.296Z,99.99
2023-05-07T05:56:53.030Z,99.99
2023-05-07T05:57:53.878Z,99.99
2023-05-07T05:58:54.566Z,99.99
2023-05-07T05:59:54.721Z,99.99
2023-05-07T06:00:55.613Z,99.99
2023-05-07T06:01:56.383Z,99.99
2023-05-07T06:02:56.913Z,99.99
2023-05-07T06:03:56.771Z,99.99
2023-05-07T06:04:57.791Z,99.99
2023-05-07T06:05:58.079Z,99.99
2023-05-07T06:06:58.777Z,99.99
2023-05-07T06:07:59.478Z,99.99
2023-05-07T06:09:00.647Z,99.99
2023-05-07T06:10:01.357Z,99.99
2023-05-07T06:11:02.331Z,99.99
2023-05-07T06:12:05.969Z,99.99
2023-05-07T06:14:04.012Z,99.99
2023-05-07T06:15:04.907Z,99.99
2023-05-07T06:16:04.920Z,99.99
2023-05-07T06:17:06.339Z,99.99
2023-05-07T06:18:06.893Z,99.99
2023-05-07T06:19:07.773Z,99.99
2023-05-07T06:20:08.139Z,99.99
2023-05-07T06:21:08.268Z,99.99
2023-05-07T06:22:08.875Z,99.99
2023-05-07T06:23:09.836Z,99.99
2023-05-07T06:24:10.119Z,99.99
2023-05-07T06:25:10.629Z,99.99
2023-05-07T06:26:11.342Z,99.99
2023-05-07T06:27:12.265Z,99.99
2023-05-07T06:28:12.654Z,99.99
2023-05-07T06:29:13.160Z,99.99
2023-05-07T06:30:13.906Z,99.99
2023-05-07T06:31:14.459Z,99.99
2023-05-07T06:32:15.517Z,99.99
2023-05-07T06:33:16.390Z,99.99
2023-05-07T06:34:17.316Z,99.99
2023-05-07T06:35:18.032Z,99.99
2023-05-07T06:36:18.563Z,99.99
2023-05-07T06:37:19.086Z,99.99
2023-05-07T06:38:19.787Z,99.99
2023-05-07T06:39:20.871Z,99.99
2023-05-07T06:40:21.811Z,99.99
2023-05-07T06:41:22.904Z,99.99
2023-05-07T06:42:23.410Z,99.99
2023-05-07T06:43:24.292Z,99.99
2023-05-07T06:44:24.967Z,99.99
2023-05-07T06:45:26.185Z,99.99
2023-05-07T06:46:26.150Z,99.99
2023-05-07T06:47:26.990Z,99.99
2023-05-07T06:48:27.906Z,99.99
2023-05-07T06:49:28.519Z,99.99
2023-05-07T06:50:29.237Z,99.99
2023-05-07T06:51:29.549Z,99.99
2023-05-07T06:52:30.476Z,99.99
2023-05-07T06:53:31.355Z,99.99
2023-05-07T06:54:32.035Z,99.99
2023-05-07T06:55:32.159Z,99.99
2023-05-07T06:56:32.684Z,99.99
2023-05-07T06:57:33.419Z,99.99
2023-05-07T06:58:33.992Z,99.99
2023-05-07T06:59:34.881Z,99.99
2023-05-07T07:00:35.453Z,99.99
2023-05-07T07:01:36.448Z,99.99
2023-05-07T07:02:36.736Z,99.99
2023-05-07T07:03:36.802Z,99.25
2023-05-07T07:04:37.261Z,98.14
2023-05-07T07:05:37.558Z,97.76
2023-05-07T07:06:38.224Z,96.66
2023-05-07T07:07:39.151Z,95.7
2023-05-07T07:08:39.871Z,94.88
2023-05-07T07:09:39.974Z,93.63
2023-05-07T07:10:40.695Z,91.17
2023-05-07T07:11:41.189Z,90.89
2023-05-07T07:12:42.060Z,90.35
2023-05-07T07:13:42.785Z,89.49
2023-05-07T07:14:44.086Z,90.06
2023-05-07T07:15:45.216Z,88.71
2023-05-07T07:16:46.342Z,88.04
2023-05-07T07:17:47.158Z,88.14
2023-05-07T07:18:48.088Z,87.27
2023-05-07T07:19:48.832Z,87.08
2023-05-07T07:20:49.144Z,87.7
2023-05-07T07:21:49.451Z,87.51
2023-05-07T07:22:50.405Z,86.93
2023-05-07T07:23:51.183Z,87.32
2023-05-07T07:24:52.144Z,88.09
2023-05-07T07:25:52.714Z,87.6
2023-05-07T07:26:53.432Z,87.9
2023-05-07T07:27:53.943Z,87.8
2023-05-07T07:28:54.730Z,87.7
2023-05-07T07:29:55.669Z,88.09
2023-05-07T07:30:56.466Z,88.09
2023-05-07T07:31:57.420Z,88.95
2023-05-07T07:32:58.524Z,88.76
2023-05-07T07:33:58.743Z,88.76
2023-05-07T07:34:59.917Z,87.12
2023-05-07T07:36:00.667Z,87.22
2023-05-07T07:37:01.404Z,87.46
2023-05-07T07:38:01.534Z,87.32
2023-05-07T07:39:02.080Z,86.45
2023-05-07T07:40:02.904Z,85.87
2023-05-07T07:41:03.908Z,85.39
2023-05-07T07:42:04.663Z,84.43
2023-05-07T07:43:05.227Z,85.1
2023-05-07T07:44:06.024Z,87.12
2023-05-07T07:45:06.803Z,86.74
2023-05-07T07:46:07.594Z,86.21
2023-05-07T07:47:08.215Z,84.95
2023-05-07T07:48:08.440Z,85.43
2023-05-07T07:49:09.332Z,85.82
2023-05-07T07:50:10.046Z,84.22
2023-05-07T07:51:10.090Z,83.16
2023-05-07T07:52:11.210Z,83.45
2023-05-07T07:53:11.934Z,83.16
2023-05-07T07:54:12.315Z,82.78
2023-05-07T07:55:12.434Z,82.1
2023-05-07T07:56:13.549Z,83.07
2023-05-07T07:57:14.255Z,82.49
2023-05-07T07:58:14.980Z,81.62
2023-05-07T07:59:15.620Z,82.49
2023-05-07T08:00:16.660Z,81.91
2023-05-07T08:01:17.357Z,81.14
2023-05-07T08:02:18.260Z,80.85
2023-05-07T08:03:18.768Z,79.74
2023-05-07T08:04:19.337Z,79.74
2023-05-07T08:05:19.833Z,79.74
2023-05-07T08:06:20.800Z,79.16
2023-05-07T08:07:20.910Z,79.74
2023-05-07T08:08:21.410Z,81.9
2023-05-07T08:09:22.108Z,81.02
2023-05-07T08:10:23.359Z,81.41
2023-05-07T08:11:23.927Z,81.9
2023-05-07T08:12:24.650Z,80.54
2023-05-07T08:13:25.347Z,79.43
2023-05-07T08:14:26.200Z,79.52
2023-05-07T08:15:26.504Z,79.62
2023-05-07T08:16:31.039Z,79.14
2023-05-07T08:17:27.944Z,79.66
2023-05-07T08:18:28.646Z,78.89
2023-05-07T08:19:29.645Z,78.02
2023-05-07T08:20:30.366Z,78.02
2023-05-07T08:21:32.459Z,81.88
2023-05-07T08:22:31.489Z,83.72
2023-05-07T08:23:31.726Z,82.65
2023-05-07T08:24:32.360Z,82.11
2023-05-07T08:25:33.444Z,81.63
2023-05-07T08:26:33.749Z,82.11
2023-05-07T08:27:34.286Z,80.18
2023-05-07T08:28:34.588Z,79.5
2023-05-07T08:29:35.210Z,80.38
2023-05-07T08:30:36.199Z,80.28
2023-05-07T08:31:36.912Z,80.05
2023-05-07T08:32:37.211Z,80.82
2023-05-07T08:33:38.078Z,81.68
2023-05-07T08:34:38.706Z,84.72
2023-05-07T08:35:39.243Z,83.81
2023-05-07T08:36:39.612Z,84.58
2023-05-07T08:37:40.162Z,82.11
2023-05-07T08:38:40.676Z,80.95
2023-05-07T08:39:41.610Z,80.86
2023-05-07T08:40:41.963Z,81.24
2023-05-07T08:41:42.882Z,80.99
2023-05-07T08:42:43.856Z,79.35
2023-05-07T08:43:44.562Z,78.48
2023-05-07T08:44:45.666Z,79.74
2023-05-07T08:45:46.175Z,78.38
2023-05-07T08:46:47.120Z,78.58
2023-05-07T08:47:47.196Z,79.06
2023-05-07T08:48:47.459Z,77.32
2023-05-07T08:49:48.211Z,77
2023-05-07T08:50:48.706Z,78.58
2023-05-07T08:51:49.459Z,80.12
2023-05-07T08:52:49.758Z,78.81
2023-05-07T08:53:50.722Z,76.68
2023-05-07T08:54:51.575Z,78.61
2023-05-07T08:55:51.500Z,79.49
2023-05-07T08:56:52.246Z,78.03
2023-05-07T08:57:52.968Z,78.08
2023-05-07T08:58:53.710Z,77.88
2023-05-07T08:59:54.328Z,77.63
2023-05-07T09:00:54.861Z,75.11
2023-05-07T09:01:55.996Z,74.08
2023-05-07T09:02:56.921Z,74.38
2023-05-07T09:03:57.983Z,73.79
2023-05-07T09:04:58.644Z,75.09
2023-05-07T09:05:59.802Z,74.99
2023-05-07T09:06:59.722Z,73.83
2023-05-07T09:08:00.230Z,72.77
2023-05-07T09:09:00.758Z,72.31
2023-05-07T09:10:01.589Z,73.09
2023-05-07T09:11:02.065Z,73.64
2023-05-07T09:12:02.593Z,75.32
2023-05-07T09:13:03.195Z,73.67
2023-05-07T09:14:03.455Z,72.99
2023-05-07T09:15:03.558Z,73.96
2023-05-07T09:16:04.208Z,73.67
2023-05-07T09:17:05.146Z,72.31
2023-05-07T09:18:05.927Z,71.93
2023-05-07T09:19:07.073Z,70.47
2023-05-07T09:20:10.191Z,69.89
2023-05-07T09:21:08.634Z,70.18
2023-05-07T09:22:09.392Z,71.73
2023-05-07T09:23:09.928Z,72.51
2023-05-07T09:24:10.469Z,70.8
2023-05-07T09:25:11.373Z,71.28
2023-05-07T09:26:13.750Z,70.35
2023-05-07T09:27:13.270Z,68.7
2023-05-07T09:28:13.752Z,68.51
2023-05-07T09:29:14.517Z,68.51
2023-05-07T09:30:15.184Z,69.96
2023-05-07T09:31:16.607Z,69.96
2023-05-07T09:32:16.917Z,69.67
2023-05-07T09:33:16.978Z,67.96
2023-05-07T09:34:17.280Z,70.29
2023-05-07T09:35:18.235Z,70.19
2023-05-07T09:36:18.800Z,70.57
2023-05-07T09:37:19.863Z,70.57
2023-05-07T09:38:20.806Z,69.54
2023-05-07T09:39:20.924Z,70.12
2023-05-07T09:40:21.636Z,69.74
2023-05-07T09:41:22.748Z,69.06
2023-05-07T09:42:23.259Z,68.48
2023-05-07T09:43:23.802Z,68.73
2023-05-07T09:44:24.541Z,69.12
2023-05-07T09:45:25.127Z,68.31
2023-05-07T09:46:25.992Z,71.03
2023-05-07T09:47:26.805Z,72.77
2023-05-07T09:48:26.727Z,70.9
2023-05-07T09:49:27.474Z,71.19
2023-05-07T09:50:28.005Z,70.51
2023-05-07T09:51:28.539Z,71.19
2023-05-07T09:52:29.048Z,72.25
2023-05-07T09:53:29.775Z,73.07
2023-05-07T09:54:30.705Z,70.64
2023-05-07T09:55:31.531Z,66.99
2023-05-07T09:56:31.708Z,67.08
2023-05-07T09:57:32.618Z,68.73
2023-05-07T09:58:33.131Z,70.39
2023-05-07T09:59:35.730Z,70.48
2023-05-07T10:00:34.558Z,69.02
2023-05-07T10:01:35.382Z,68.48
2023-05-07T10:02:36.252Z,69.77
2023-05-07T10:03:36.664Z,69.19
2023-05-07T10:04:37.347Z,67.93
2023-05-07T10:05:37.882Z,65.53
2023-05-07T10:06:38.019Z,64.85
2023-05-07T10:07:38.747Z,66.79
2023-05-07T10:08:39.447Z,67.38
2023-05-07T10:09:39.563Z,66.5
2023-05-07T10:10:40.386Z,68.19
2023-05-07T10:11:40.418Z,64.98
2023-05-07T10:12:40.860Z,65.75
2023-05-07T10:13:42.166Z,64.39
2023-05-07T10:14:42.968Z,66.53
2023-05-07T10:15:43.486Z,65.27
2023-05-07T10:16:43.980Z,64.39
2023-05-07T10:17:45.058Z,62.09
2023-05-07T10:18:45.328Z,64.04
2023-05-07T10:19:45.428Z,65.14
2023-05-07T10:20:46.655Z,65.04
2023-05-07T10:21:47.388Z,64.84
2023-05-07T10:22:47.912Z,60.17
2023-05-07T10:23:48.428Z,60.63
2023-05-07T10:24:48.944Z,63.84
2023-05-07T10:25:49.212Z,60.24
2023-05-07T10:26:50.103Z,59.56
2023-05-07T10:27:50.841Z,61.08
2023-05-07T10:28:51.391Z,61.54
2023-05-07T10:29:52.303Z,61.74
2023-05-07T10:30:53.211Z,61.9
2023-05-07T10:31:54.405Z,61.74
2023-05-07T10:32:55.135Z,60.83
2023-05-07T10:33:55.824Z,60.83
2023-05-07T10:34:56.971Z,61.58
2023-05-07T10:35:57.529Z,61
2023-05-07T10:36:57.869Z,61.58
2023-05-07T10:37:58.599Z,64.78
2023-05-07T10:38:59.523Z,65.2
2023-05-07T10:40:00.302Z,65.5
2023-05-07T10:41:01.040Z,65.04
2023-05-07T10:42:01.146Z,62.71
2023-05-07T10:43:01.885Z,63.1
2023-05-07T10:44:02.762Z,61.05
2023-05-07T10:45:03.280Z,59.53
2023-05-07T10:46:03.565Z,55.35
2023-05-07T10:47:04.369Z,55.83
2023-05-07T10:48:07.010Z,56.32
2023-05-07T10:49:05.043Z,56.03
2023-05-07T10:50:06.043Z,57.59
2023-05-07T10:51:07.921Z,55.74
2023-05-07T10:52:06.713Z,56.12
2023-05-07T10:53:07.435Z,57
2023-05-07T10:54:07.950Z,59.63
2023-05-07T10:55:08.696Z,55.83
2023-05-07T10:56:09.205Z,53.4
2023-05-07T10:57:10.239Z,56.22
2023-05-07T10:58:14.536Z,56.9
2023-05-07T10:59:11.612Z,55.93
2023-05-07T11:00:12.117Z,57.97
2023-05-07T11:01:12.242Z,54.69
2023-05-07T11:02:13.304Z,53.04
2023-05-07T11:03:14.926Z,53.89
2023-05-07T11:04:14.940Z,53.3
2023-05-07T11:05:15.777Z,54.44
2023-05-07T11:06:16.300Z,55.03
2023-05-07T11:07:16.648Z,55.13
2023-05-07T11:08:17.411Z,55.39
2023-05-07T11:09:18.143Z,56.95
2023-05-07T11:10:18.738Z,57.33
2023-05-07T11:11:19.099Z,58.89
2023-05-07T11:12:19.875Z,56.95
2023-05-07T11:13:20.718Z,54.8
2023-05-07T11:14:21.708Z,54.58
2023-05-07T11:15:22.487Z,57.01
2023-05-07T11:17:22.926Z,57.69
2023-05-07T11:18:23.345Z,56.14
2023-05-07T11:19:23.253Z,56.72
2023-05-07T11:20:24.002Z,57.76
2023-05-07T11:21:24.272Z,57.47
2023-05-07T11:22:25.005Z,58.9
2023-05-07T11:23:25.709Z,58.67
2023-05-07T11:24:26.676Z,60.3
2023-05-07T11:25:27.591Z,63.59
2023-05-07T11:26:28.113Z,62.62
2023-05-07T11:27:28.952Z,61.55
2023-05-07T11:28:29.664Z,61.75
2023-05-07T11:29:30.424Z,63.88
2023-05-07T11:30:30.931Z,65.53
2023-05-07T11:31:31.551Z,62.62
2023-05-07T11:32:36.192Z,61.46
2023-05-07T11:33:32.862Z,63.01
2023-05-07T11:34:33.256Z,62.62
2023-05-07T11:35:36.427Z,64.37
2023-05-07T11:36:34.404Z,64.07
2023-05-07T11:37:35.693Z,63.2
2023-05-07T11:38:36.205Z,64.62
2023-05-07T11:39:37.125Z,65.3
2023-05-07T11:40:37.428Z,65.11
2023-05-07T11:41:38.019Z,65.11
2023-05-07T11:42:38.381Z,64.98
2023-05-07T11:43:38.738Z,65.08
2023-05-07T11:44:39.450Z,65.72
2023-05-07T11:45:40.224Z,65.82
2023-05-07T11:46:41.122Z,64.56
2023-05-07T11:47:42.179Z,65.34
2023-05-07T11:48:42.645Z,65.43
2023-05-07T11:49:42.648Z,65.88
2023-05-07T11:50:43.457Z,66.5
2023-05-07T11:51:44.154Z,66.56
2023-05-07T11:52:44.647Z,66.27
2023-05-07T11:53:45.792Z,67.63
2023-05-07T11:54:46.318Z,67.98
2023-05-07T11:55:47.029Z,70.04
2023-05-07T11:56:48.106Z,68.11
2023-05-07T11:57:49.242Z,68.11
2023-05-07T11:58:49.565Z,68.59
2023-05-07T11:59:50.284Z,67.91
2023-05-07T12:00:50.823Z,68.3
2023-05-07T12:01:51.938Z,68.21
2023-05-07T12:02:52.310Z,68.3
2023-05-07T12:03:52.758Z,68.49
2023-05-07T12:04:52.420Z,68.11
2023-05-07T12:05:53.183Z,66.47
2023-05-07T12:06:53.961Z,66.75
2023-05-07T12:07:54.658Z,67.14
2023-05-07T12:08:55.415Z,65.2
2023-05-07T12:09:56.326Z,65.88
2023-05-07T12:10:56.874Z,67.63
2023-05-07T12:11:57.588Z,67.82
2023-05-07T12:12:58.649Z,67.63
2023-05-07T12:14:00.090Z,68.79
2023-05-07T12:14:59.825Z,67.85
2023-05-07T12:16:00.675Z,66.02
2023-05-07T12:17:01.370Z,64.98
2023-05-07T12:18:02.187Z,65.47
2023-05-07T12:19:02.897Z,65.66
2023-05-07T12:20:03.391Z,66.72
2023-05-07T12:21:04.223Z,66.53
2023-05-07T12:22:04.998Z,67.5
2023-05-07T12:23:05.535Z,67.53
2023-05-07T12:24:06.055Z,63.37
2023-05-07T12:25:06.714Z,61.82
2023-05-07T12:26:07.720Z,61.82
2023-05-07T12:27:07.280Z,63.17
2023-05-07T12:28:08.251Z,64.01
2023-05-07T12:29:08.378Z,67.02
2023-05-07T12:30:09.169Z,64.59
2023-05-07T12:31:10.087Z,65.56
2023-05-07T12:32:12.734Z,65.75
2023-05-07T12:33:10.840Z,65.27
2023-05-07T12:34:11.156Z,63.34
2023-05-07T12:35:11.792Z,62.46
2023-05-07T12:36:12.902Z,62.82
2023-05-07T12:37:13.328Z,64.66
2023-05-07T12:38:14.638Z,66.98
2023-05-07T12:39:14.738Z,67.76
2023-05-07T12:40:15.681Z,67.76
2023-05-07T12:41:15.986Z,69.4
2023-05-07T12:42:16.697Z,66.47
2023-05-07T12:43:17.286Z,67.53
2023-05-07T12:44:17.991Z,66.95
2023-05-07T12:45:19.820Z,67.43
2023-05-07T12:46:19.829Z,68.11
2023-05-07T12:47:20.722Z,66.05
2023-05-07T12:48:21.371Z,65.79
2023-05-07T12:49:24.558Z,67.98
2023-05-07T12:50:22.705Z,67.79
2023-05-07T12:51:23.485Z,67.01
2023-05-07T12:52:24.502Z,66.43
2023-05-07T12:53:25.309Z,66.43
2023-05-07T12:54:26.199Z,65.47
2023-05-07T12:55:27.749Z,65.56
2023-05-07T12:56:28.014Z,68.27
2023-05-07T12:57:28.684Z,70.26
2023-05-07T12:58:29.439Z,72.91
2023-05-07T12:59:30.406Z,75.78
2023-05-07T13:00:31.342Z,75.68
2023-05-07T13:01:31.975Z,73.94
2023-05-07T13:02:32.842Z,74.52
2023-05-07T13:03:33.697Z,74.1
2023-05-07T13:04:34.013Z,76.12
2023-05-07T13:05:34.728Z,79.7